Time;durP1;ratioP1;P1;durP2;ratioP2;P2;SDS_P1;SDS_P2;PMS_P1;PMS_P2;Temp;Humidity;BMP_temperature;BMP_pressure;BME280_temperature;BME280_humidity;BME280_pressure;Samples;Min_cycle;Max_cycle;Signal;HPM_P1;HPM_P2
2023/09/20 00:01:05;;;;;;;9.98;2.22;;;16.50;99.90;;;;;;4977968;28;20106;-93
2023/09/20 00:03:35;;;;;;;7.47;2.30;;;16.40;99.90;;;;;;4994184;28;20045;-95
2023/09/20 00:06:09;;;;;;;7.30;2.42;;;16.40;99.90;;;;;;4994911;28;20049;-96
2023/09/20 00:08:36;;;;;;;8.82;2.60;;;16.40;99.90;;;;;;4990741;28;20138;-94
2023/09/20 00:11:15;;;;;;;7.85;2.55;;;16.40;99.90;;;;;;4993804;28;20045;-92
2023/09/20 00:13:42;;;;;;;5.60;2.40;;;16.40;99.90;;;;;;4993709;28;20038;-94
2023/09/20 00:16:16;;;;;;;6.72;2.10;;;16.40;99.90;;;;;;4994315;28;20046;-96
2023/09/20 00:18:51;;;;;;;10.48;2.47;;;16.40;99.90;;;;;;4993906;28;20098;-95
2023/09/20 00:21:23;;;;;;;6.50;2.25;;;16.50;99.90;;;;;;4978085;28;20098;-95
2023/09/20 00:24:17;;;;;;;6.65;2.33;;;16.20;99.90;;;;;;4984009;28;20491;-94
2023/09/20 00:26:50;;;;;;;5.38;2.50;;;16.40;99.90;;;;;;5007750;28;20046;-94
2023/09/20 00:29:17;;;;;;;8.13;2.50;;;16.30;99.90;;;;;;5008869;28;20078;-95
2023/09/20 00:31:44;;;;;;;8.77;2.85;;;16.40;99.90;;;;;;5009785;28;20051;-96
2023/09/20 00:34:19;;;;;;;7.97;2.72;;;16.30;99.90;;;;;;5009204;28;20046;-95
2023/09/20 00:37:01;;;;;;;6.93;2.38;;;16.30;99.90;;;;;;4980276;28;20046;-95
2023/09/20 00:39:30;;;;;;;10.20;3.13;;;16.30;99.90;;;;;;4993483;28;20069;-96
2023/09/20 00:42:04;;;;;;;6.72;2.75;;;16.20;99.90;;;;;;4992500;28;20050;-94
2023/09/20 00:44:35;;;;;;;8.85;2.80;;;16.30;99.90;;;;;;4992550;28;20047;-95
2023/09/20 00:47:55;;;;;;;9.00;2.78;;;16.30;99.90;;;;;;4977630;28;20841;-94
2023/09/20 00:50:42;;;;;;;8.70;2.80;;;16.50;99.90;;;;;;4983787;28;20046;-95
2023/09/20 00:56:14;;;;;;;9.77;2.75;;;16.30;99.90;;;;;;4998042;28;20054;-96
2023/09/20 00:58:52;;;;;;;6.93;3.05;;;16.40;99.90;;;;;;4994626;28;20054;-95
2023/09/20 01:01:48;;;;;;;9.68;3.22;;;16.40;99.90;;;;;;4978649;28;20038;-95
2023/09/20 01:04:34;;;;;;;6.63;3.03;;;16.40;99.90;;;;;;4999317;28;20463;-96
2023/09/20 01:07:42;;;;;;;9.00;2.97;;;16.50;99.90;;;;;;5015789;28;20038;-95
2023/09/20 01:10:12;;;;;;;11.43;2.72;;;16.40;99.90;;;;;;4985837;28;20050;-96
2023/09/20 01:12:48;;;;;;;14.27;3.13;;;16.50;99.90;;;;;;4996151;28;20039;-96
2023/09/20 01:15:14;;;;;;;8.65;2.67;;;16.40;99.90;;;;;;4978278;28;20073;-94
2023/09/20 01:18:02;;;;;;;9.18;3.33;;;16.50;99.90;;;;;;4995138;28;20039;-96
2023/09/20 01:20:51;;;;;;;11.05;2.90;;;16.50;99.90;;;;;;4978836;28;20039;-96
2023/09/20 01:23:29;;;;;;;13.07;3.17;;;16.50;99.90;;;;;;4994377;28;20042;-95
2023/09/20 01:26:22;;;;;;;13.73;2.80;;;16.60;99.90;;;;;;5034205;28;20112;-95
2023/09/20 01:28:59;;;;;;;9.73;3.28;;;16.60;99.90;;;;;;5001221;28;20129;-95
2023/09/20 01:31:36;;;;;;;9.52;2.80;;;16.60;99.90;;;;;;5000840;28;20038;-95
2023/09/20 01:34:41;;;;;;;7.95;2.47;;;16.60;99.90;;;;;;5017995;28;20041;-95
2023/09/20 01:37:11;;;;;;;10.35;2.50;;;16.60;99.90;;;;;;5000877;28;20052;-95
2023/09/20 01:39:41;;;;;;;10.60;3.13;;;16.50;99.90;;;;;;5000345;28;20042;-96
2023/09/20 01:42:17;;;;;;;9.07;2.88;;;16.60;99.90;;;;;;4999960;28;20038;-94
2023/09/20 01:44:49;;;;;;;9.52;2.90;;;16.60;99.90;;;;;;5000611;28;20129;-95
2023/09/20 01:47:16;;;;;;;7.18;2.60;;;16.60;99.90;;;;;;5002003;28;20084;-96
2023/09/20 01:49:46;;;;;;;11.65;2.75;;;16.60;99.90;;;;;;5012258;28;20037;-95
2023/09/20 01:52:14;;;;;;;11.60;2.78;;;16.60;99.90;;;;;;5003777;28;20399;-95
2023/09/20 01:54:57;;;;;;;6.85;2.40;;;16.60;99.90;;;;;;5006444;28;20045;-96
2023/09/20 01:57:41;;;;;;;9.40;2.90;;;16.60;99.90;;;;;;4982134;28;20100;-95
2023/09/20 02:03:20;;;;;;;6.22;2.42;;;16.60;99.90;;;;;;5000747;28;20050;-95
2023/09/20 02:05:50;;;;;;;7.68;2.63;;;16.60;99.90;;;;;;5001461;28;20042;-95
2023/09/20 02:08:20;;;;;;;7.53;2.47;;;16.60;99.90;;;;;;5000877;28;20038;-95
2023/09/20 02:10:51;;;;;;;10.25;2.85;;;16.70;99.90;;;;;;5016003;28;20378;-95
2023/09/20 02:13:42;;;;;;;8.77;2.58;;;16.90;99.90;;;;;;5019390;28;20046;-95
2023/09/20 02:16:09;;;;;;;9.40;2.65;;;16.70;99.90;;;;;;4987013;28;20422;-95
2023/09/20 02:18:40;;;;;;;9.80;2.78;;;16.70;99.90;;;;;;4999613;28;20035;-94
2023/09/20 02:21:23;;;;;;;8.93;2.45;;;16.60;99.90;;;;;;4983480;28;20089;-95
2023/09/20 02:24:16;;;;;;;10.77;2.70;;;16.70;99.90;;;;;;4984437;28;20061;-94
2023/09/20 02:27:34;;;;;;;8.27;2.70;;;16.70;99.90;;;;;;4986402;28;20050;-95
2023/09/20 02:30:24;;;;;;;8.73;2.60;;;16.60;99.90;;;;;;4998984;28;20038;-96
2023/09/20 02:32:52;;;;;;;11.23;2.47;;;16.70;99.90;;;;;;5013699;28;20085;-95
2023/09/20 02:35:29;;;;;;;12.13;3.85;;;16.70;99.90;;;;;;4998831;28;20042;-96
2023/09/20 02:38:05;;;;;;;13.32;2.70;;;16.60;99.90;;;;;;4998764;28;20046;-95
2023/09/20 02:40:38;;;;;;;10.80;2.92;;;16.40;99.90;;;;;;4998731;28;20090;-93
2023/09/20 02:43:08;;;;;;;11.20;2.80;;;16.70;99.90;;;;;;4999249;28;20031;-95
2023/09/20 02:45:44;;;;;;;7.68;2.30;;;16.80;99.90;;;;;;4999476;28;20038;-95
2023/09/20 02:48:14;;;;;;;9.88;2.60;;;17.10;99.90;;;;;;4999605;28;20747;-95
2023/09/20 02:50:41;;;;;;;7.55;2.42;;;16.70;99.90;;;;;;4983932;28;20034;-94
2023/09/20 02:53:48;;;;;;;;;;;;;;;;;;;;;
2023/09/20 02:59:40;;;;;;;7.88;2.65;;;16.80;99.90;;;;;;5018588;28;20047;-95
2023/09/20 03:02:35;;;;;;;11.07;2.50;;;16.80;99.90;;;;;;5003628;28;20034;-96
2023/09/20 03:05:03;;;;;;;8.05;2.22;;;16.80;99.90;;;;;;4991355;28;20039;-94
2023/09/20 03:08:20;;;;;;;7.57;2.38;;;16.80;99.90;;;;;;4999320;28;20046;-95
2023/09/20 03:11:31;;;;;;;;;;;;;;;;;;;;;
2023/09/20 03:13:59;;;;;;;7.60;2.25;;;16.80;99.90;;;;;;5016356;28;20038;-95
2023/09/20 03:16:34;;;;;;;6.00;2.15;;;16.80;99.90;;;;;;5004760;28;20038;-95
2023/09/20 03:19:14;;;;;;;11.50;2.45;;;16.80;99.90;;;;;;5018185;28;20119;-94
2023/09/20 03:21:42;;;;;;;6.57;2.45;;;16.80;99.90;;;;;;5019340;28;20042;-95
2023/09/20 03:24:09;;;;;;;8.70;2.28;;;16.70;99.90;;;;;;5014418;28;20068;-95
2023/09/20 03:26:36;;;;;;;7.25;2.63;;;16.80;99.90;;;;;;5015729;28;20101;-94
2023/09/20 03:29:25;;;;;;;6.00;2.10;;;16.80;99.90;;;;;;5015896;28;20108;-94
2023/09/20 03:35:44;;;;;;;7.25;2.28;;;16.70;99.90;;;;;;4947158;29;20418;-94
2023/09/20 03:41:55;;;;;;;11.75;2.40;;;16.70;99.90;;;;;;4952239;29;20110;-94
2023/09/20 03:44:25;;;;;;;5.63;2.00;;;16.80;99.90;;;;;;4962679;28;20100;-94
2023/09/20 03:47:04;;;;;;;7.22;2.05;;;16.80;99.90;;;;;;4980717;28;20035;-95
2023/09/20 03:49:49;;;;;;;9.52;2.20;;;16.80;99.90;;;;;;4996148;28;20043;-95
2023/09/20 03:52:56;;;;;;;;;;;;;;;;;;;;;
2023/09/20 03:55:18;;;;;;;8.57;2.72;;;16.80;99.90;;;;;;4992876;28;20462;-96
2023/09/20 03:58:41;;;;;;;7.78;2.50;;;16.80;99.90;;;;;;5006209;28;20415;-96
2023/09/20 04:01:31;;;;;;;7.72;2.75;;;16.70;99.90;;;;;;4996687;28;20046;-95
2023/09/20 05:55:31;;;;;;;;;;;;;;;;;;;;;
2023/09/20 05:58:29;;;;;;;5.90;2.38;;;15.70;99.90;;;;;;4947984;29;20036;-94
2023/09/20 06:01:00;;;;;;;7.25;2.10;;;15.60;99.90;;;;;;4925396;29;20437;-93
2023/09/20 06:04:24;;;;;;;7.07;2.33;;;15.70;99.90;;;;;;4939346;29;20170;-94
2023/09/20 06:07:04;;;;;;;7.38;2.65;;;15.60;99.90;;;;;;4920250;29;20036;-93
2023/09/20 06:12:56;;;;;;;7.18;2.33;;;15.80;99.90;;;;;;4939764;29;20048;-94
2023/09/20 06:16:14;;;;;;;;;;;;;;;;;;;;;
2023/09/20 06:23:25;;;;;;;6.32;2.00;;;15.80;99.90;;;;;;4755345;30;20181;-94
2023/09/20 06:25:59;;;;;;;7.05;2.20;;;15.90;99.90;;;;;;4748609;30;20062;-94
2023/09/20 06:36:12;;;;;;;7.90;2.03;;;15.80;99.90;;;;;;4823888;30;20081;-94
2023/09/20 06:39:55;;;;;;;;;;;;;;;;;;;;;
2023/09/20 06:42:58;;;;;;;12.90;2.40;;;15.80;99.90;;;;;;4840333;29;20114;-93
2023/09/20 06:45:35;;;;;;;6.10;1.98;;;16.10;99.90;;;;;;4856322;29;20097;-90
2023/09/20 06:48:06;;;;;;;5.22;1.88;;;16.10;99.90;;;;;;4921875;29;20040;-90
2023/09/20 06:50:55;;;;;;;6.85;1.95;;;16.10;99.90;;;;;;4922519;29;20040;-90
2023/09/20 06:53:44;;;;;;;3.97;1.90;;;16.10;99.90;;;;;;4934141;29;20527;-91
2023/09/20 07:04:06;;;;;;;6.63;2.08;;;16.00;99.90;;;;;;4906241;29;20036;-89
2023/09/20 07:06:43;;;;;;;9.05;2.90;;;16.30;99.90;;;;;;4849329;29;20056;-90
2023/09/20 07:09:10;;;;;;;6.35;2.22;;;16.30;99.90;;;;;;4867345;29;20056;-90
2023/09/20 07:15:25;;;;;;;5.95;2.15;;;16.60;99.90;;;;;;4953249;29;20035;-89
2023/09/20 07:17:58;;;;;;;6.05;2.10;;;16.50;99.90;;;;;;4908310;29;20032;-91
2023/09/20 07:20:26;;;;;;;7.72;2.17;;;16.50;99.90;;;;;;4952427;29;20056;-90
2023/09/20 07:23:06;;;;;;;4.72;2.22;;;16.50;99.90;;;;;;4920377;29;20075;-90
2023/09/20 07:25:43;;;;;;;8.80;2.60;;;16.50;99.90;;;;;;4904460;29;20205;-91
2023/09/20 07:28:10;;;;;;;9.00;2.43;;;16.50;99.90;;;;;;4905715;29;20130;-90
2023/09/20 07:31:06;;;;;;;4.97;1.90;;;16.50;99.90;;;;;;4931376;29;20086;-90
2023/09/20 07:34:23;;;;;;;8.30;2.58;;;16.70;99.90;;;;;;4914096;29;20052;-93
2023/09/20 07:41:13;;;;;;;7.30;2.22;;;16.50;99.90;;;;;;4873534;29;20424;-93
2023/09/20 07:43:51;;;;;;;12.30;2.47;;;16.60;99.90;;;;;;4898329;29;20119;-92
2023/09/20 07:57:28;;;;;;;6.32;2.30;;;16.90;99.90;;;;;;4814098;29;20150;-90
2023/09/20 07:59:55;;;;;;;6.18;2.20;;;17.30;99.90;;;;;;4843431;29;20046;-88
2023/09/20 08:02:22;;;;;;;7.90;2.50;;;17.10;99.90;;;;;;4863377;29;20053;-89
2023/09/20 08:04:52;;;;;;;9.60;2.22;;;17.30;99.90;;;;;;4848224;29;20046;-89
2023/09/20 08:07:39;;;;;;;7.65;2.58;;;17.40;99.90;;;;;;4863324;29;20057;-90
2023/09/20 08:14:25;;;;;;;7.00;2.33;;;17.50;99.90;;;;;;4914778;29;20043;-89
2023/09/20 08:19:42;;;;;;;7.18;2.58;;;17.50;99.90;;;;;;4934547;29;20040;-87
2023/09/20 08:22:10;;;;;;;9.90;2.50;;;17.40;99.90;;;;;;4903613;29;20434;-88
2023/09/20 09:00:53;;;;;;;5.18;2.33;;;17.80;99.90;;;;;;4869069;29;20081;-93
2023/09/20 09:21:27;;;;;;;;;;;;;;;;;;;;;
2023/09/20 09:24:33;;;;;;;7.93;2.05;;;18.60;99.90;;;;;;4792369;30;20048;-94
2023/09/20 09:27:05;;;;;;;5.18;2.00;;;18.50;99.90;;;;;;4784373;29;20054;-91
2023/09/20 09:37:19;;;;;;;6.90;2.42;;;18.70;99.90;;;;;;4839358;29;20050;-94
2023/09/20 09:40:05;;;;;;;5.50;2.17;;;18.70;99.90;;;;;;4815750;29;20046;-92
2023/09/20 09:42:36;;;;;;;9.75;2.30;;;18.70;99.90;;;;;;4877104;29;20069;-86
2023/09/20 09:45:03;;;;;;;5.15;2.20;;;18.80;99.90;;;;;;4881699;29;20052;-90
2023/09/20 09:51:16;;;;;;;6.97;2.10;;;18.70;99.90;;;;;;4914561;29;20077;-90
2023/09/20 09:54:01;;;;;;;4.95;2.00;;;18.80;99.90;;;;;;4883822;29;20057;-89
2023/09/20 09:56:34;;;;;;;5.43;1.95;;;18.90;99.90;;;;;;4885327;29;20045;-89
2023/09/20 09:59:01;;;;;;;8.07;2.13;;;19.00;99.90;;;;;;4918831;29;20052;-89
2023/09/20 10:01:28;;;;;;;5.60;1.85;;;19.00;99.90;;;;;;4907190;29;20557;-90
2023/09/20 10:04:12;;;;;;;5.03;2.08;;;19.00;99.90;;;;;;4923476;29;20040;-91
2023/09/20 10:07:31;;;;;;;6.47;2.50;;;19.00;99.90;;;;;;4903801;29;20037;-89
2023/09/20 10:10:13;;;;;;;7.13;2.10;;;19.00;99.90;;;;;;4908534;29;20036;-88
2023/09/20 10:12:44;;;;;;;5.05;2.10;;;19.10;99.90;;;;;;4921022;29;20036;-88
2023/09/20 10:16:01;;;;;;;5.40;1.60;;;19.00;99.90;;;;;;4913130;29;20036;-89
2023/09/20 10:27:02;;;;;;;4.70;2.17;;;19.40;99.90;;;;;;4946081;29;20153;-91
2023/09/20 10:29:32;;;;;;;7.13;2.30;;;19.50;99.90;;;;;;4907778;29;20083;-90
2023/09/20 10:32:38;;;;;;;;;;;;;;;;;;;;;
2023/09/20 10:35:30;;;;;;;4.53;1.92;;;19.50;99.90;;;;;;4910993;29;20045;-93
2023/09/20 10:38:15;;;;;;;4.60;1.92;;;19.60;99.90;;;;;;4914085;29;20434;-93
2023/09/20 10:41:07;;;;;;;4.82;1.80;;;19.60;99.90;;;;;;4911322;29;20146;-88
2023/09/20 10:43:34;;;;;;;5.32;1.80;;;19.70;99.90;;;;;;4904272;29;20527;-83
2023/09/20 10:46:13;;;;;;;4.15;1.90;;;19.80;99.90;;;;;;4886441;29;20041;-87
2023/09/20 10:48:49;;;;;;;3.58;1.60;;;19.70;99.90;;;;;;4902174;29;20063;-85
2023/09/20 10:51:48;;;;;;;7.00;1.90;;;19.70;99.90;;;;;;4904868;29;20037;-86
2023/09/20 10:54:29;;;;;;;4.93;1.58;;;19.70;99.90;;;;;;4923637;29;20041;-85
2023/09/20 10:57:02;;;;;;;6.93;2.35;;;19.80;99.90;;;;;;4900066;29;20435;-85
2023/09/20 10:59:31;;;;;;;3.33;1.48;;;19.80;99.90;;;;;;4918938;29;20063;-86
2023/09/20 11:02:08;;;;;;;3.70;1.60;;;19.80;99.90;;;;;;4919091;29;20056;-85
2023/09/20 11:04:36;;;;;;;4.55;1.58;;;19.80;99.90;;;;;;4919080;29;20040;-85
2023/09/20 11:07:05;;;;;;;3.97;1.63;;;19.80;99.90;;;;;;4919608;29;20131;-86
2023/09/20 11:09:38;;;;;;;3.50;1.58;;;19.80;99.90;;;;;;4919663;29;20630;-85
2023/09/20 11:12:07;;;;;;;4.82;1.80;;;19.70;99.90;;;;;;4935522;29;20044;-86
2023/09/20 11:14:39;;;;;;;4.22;1.63;;;19.60;99.90;;;;;;4932770;29;20051;-86
2023/09/20 11:17:06;;;;;;;3.97;1.70;;;19.60;99.90;;;;;;4934636;29;20075;-86
2023/09/20 11:19:35;;;;;;;4.60;1.50;;;19.50;99.90;;;;;;4916563;29;20048;-86
2023/09/20 11:22:03;;;;;;;5.22;1.80;;;19.60;99.90;;;;;;4916533;29;20041;-86
2023/09/20 11:24:29;;;;;;;4.80;1.67;;;19.60;99.90;;;;;;4885501;29;20171;-85
2023/09/20 11:26:57;;;;;;;6.45;1.90;;;19.60;99.90;;;;;;4916113;29;20040;-86
2023/09/20 11:29:25;;;;;;;4.20;1.90;;;19.60;99.90;;;;;;4919210;29;20127;-86
2023/09/20 11:31:57;;;;;;;5.25;1.88;;;19.70;99.90;;;;;;4908030;29;20608;-85
2023/09/20 11:34:28;;;;;;;5.57;1.80;;;19.60;99.90;;;;;;4923984;29;20039;-85
2023/09/20 11:36:55;;;;;;;6.35;1.67;;;19.50;99.90;;;;;;4938173;29;20044;-86
2023/09/20 11:39:27;;;;;;;5.00;1.60;;;19.60;99.90;;;;;;4922962;29;20048;-86
2023/09/20 11:42:03;;;;;;;4.20;1.85;;;19.60;99.90;;;;;;4919859;29;20073;-85
2023/09/20 11:44:34;;;;;;;5.72;2.00;;;19.50;99.90;;;;;;4910327;29;20043;-86
2023/09/20 11:47:01;;;;;;;5.28;1.55;;;19.50;99.90;;;;;;4918677;29;20404;-85
2023/09/20 11:49:28;;;;;;;4.53;1.60;;;19.50;99.90;;;;;;4910990;29;20126;-85
2023/09/20 11:51:57;;;;;;;6.03;1.63;;;19.60;99.90;;;;;;4894708;29;20040;-86
2023/09/20 11:54:28;;;;;;;4.13;1.60;;;19.70;99.90;;;;;;4904060;29;20044;-84
2023/09/20 11:57:02;;;;;;;3.58;1.60;;;19.70;99.90;;;;;;4910869;29;20052;-86
2023/09/20 11:59:29;;;;;;;7.15;1.90;;;19.80;99.90;;;;;;4917968;29;20493;-85
2023/09/20 12:01:56;;;;;;;6.22;1.80;;;19.90;99.90;;;;;;4896227;29;20040;-87
2023/09/20 12:04:22;;;;;;;5.30;1.60;;;20.00;99.90;;;;;;4846626;29;20040;-87
2023/09/20 12:06:52;;;;;;;3.78;1.80;;;20.00;99.90;;;;;;4886170;29;20036;-85
2023/09/20 12:09:20;;;;;;;5.95;1.48;;;20.00;99.90;;;;;;4903220;29;20497;-84
2023/09/20 12:11:48;;;;;;;4.88;1.90;;;19.90;99.90;;;;;;4918367;29;20040;-87
2023/09/20 12:14:15;;;;;;;5.97;1.88;;;19.90;99.90;;;;;;4902858;29;20508;-85
2023/09/20 12:16:48;;;;;;;3.50;1.65;;;19.90;99.90;;;;;;4918405;29;20105;-85
2023/09/20 12:19:17;;;;;;;3.72;1.50;;;19.90;99.90;;;;;;4903029;29;20581;-85
2023/09/20 12:21:44;;;;;;;6.60;2.03;;;19.90;99.90;;;;;;4914649;29;20541;-86
2023/09/20 12:24:13;;;;;;;3.55;1.65;;;19.90;99.90;;;;;;4899882;29;20040;-85
2023/09/20 12:26:41;;;;;;;4.38;1.83;;;20.00;99.90;;;;;;4901135;29;20036;-85
2023/09/20 12:29:08;;;;;;;4.38;1.75;;;20.10;99.90;;;;;;4902832;29;20068;-86
2023/09/20 12:31:35;;;;;;;5.28;2.05;;;20.20;99.90;;;;;;4902404;29;20082;-85
2023/09/20 12:34:01;;;;;;;4.28;1.80;;;20.40;99.90;;;;;;4918401;29;20043;-86
2023/09/20 12:36:29;;;;;;;2.95;1.70;;;20.60;99.90;;;;;;4902888;29;20490;-85
2023/09/20 12:38:56;;;;;;;3.35;1.73;;;20.70;99.90;;;;;;4902921;29;20439;-86
2023/09/20 12:41:25;;;;;;;3.90;1.88;;;20.80;99.90;;;;;;4902013;29;20123;-84
2023/09/20 12:43:53;;;;;;;3.80;1.63;;;20.80;99.90;;;;;;4907384;29;20904;-85
2023/09/20 12:46:21;;;;;;;7.13;1.95;;;20.80;99.90;;;;;;4902958;29;20541;-85
2023/09/20 12:48:48;;;;;;;5.07;2.03;;;20.90;99.90;;;;;;4908293;29;20047;-85
2023/09/20 12:51:16;;;;;;;5.13;1.95;;;20.80;99.90;;;;;;4921509;29;20044;-84
2023/09/20 12:53:43;;;;;;;5.80;2.20;;;20.70;99.90;;;;;;4921410;29;20095;-89
2023/09/20 12:56:13;;;;;;;8.57;2.20;;;20.70;99.90;;;;;;4935264;29;20103;-84
2023/09/20 12:58:41;;;;;;;6.35;2.38;;;20.80;99.90;;;;;;4919849;29;20524;-84
2023/09/20 13:01:11;;;;;;;5.47;2.20;;;20.90;99.90;;;;;;4899567;29;20060;-84
2023/09/20 13:03:40;;;;;;;5.47;2.30;;;21.00;99.90;;;;;;4917424;29;20515;-85
2023/09/20 13:06:09;;;;;;;5.13;2.28;;;21.00;99.90;;;;;;4917033;29;20844;-84
2023/09/20 13:08:38;;;;;;;5.63;2.38;;;21.10;99.90;;;;;;4902283;29;20845;-85
2023/09/20 13:11:05;;;;;;;7.40;2.80;;;21.30;99.90;;;;;;4916126;29;20381;-85
2023/09/20 13:13:32;;;;;;;6.45;1.90;;;21.40;99.90;;;;;;4924785;29;20513;-83
2023/09/20 13:15:59;;;;;;;5.05;2.13;;;21.70;99.90;;;;;;4901834;29;20584;-84
2023/09/20 13:18:26;;;;;;;6.53;2.30;;;21.80;99.90;;;;;;4903131;29;20080;-85
2023/09/20 13:20:56;;;;;;;8.10;2.42;;;22.00;99.90;;;;;;4921297;29;20525;-86
2023/09/20 13:23:25;;;;;;;8.27;2.20;;;22.00;99.90;;;;;;4906352;29;20048;-84
2023/09/20 13:25:52;;;;;;;5.07;2.08;;;22.00;99.90;;;;;;4920644;29;20119;-83
2023/09/20 13:28:19;;;;;;;6.80;2.10;;;21.90;99.90;;;;;;4911382;29;20040;-83
2023/09/20 13:30:46;;;;;;;5.80;2.25;;;21.80;99.90;;;;;;4936375;29;20379;-84
2023/09/20 13:33:14;;;;;;;5.45;2.00;;;21.90;99.90;;;;;;4919344;29;20464;-85
2023/09/20 13:35:40;;;;;;;7.05;1.90;;;21.90;99.90;;;;;;4918830;29;20040;-84
2023/09/20 13:38:07;;;;;;;5.78;2.10;;;21.80;99.90;;;;;;4887825;29;20048;-84
2023/09/20 13:40:36;;;;;;;4.38;2.13;;;21.70;99.90;;;;;;4921020;29;20040;-85
2023/09/20 13:43:03;;;;;;;6.82;2.17;;;21.70;99.90;;;;;;4921128;29;20122;-84
2023/09/20 13:45:32;;;;;;;3.28;1.70;;;21.80;99.90;;;;;;4905821;29;20044;-85
2023/09/20 13:47:59;;;;;;;6.03;2.15;;;21.80;99.90;;;;;;4920581;29;20130;-86
2023/09/20 13:50:28;;;;;;;4.07;2.00;;;21.80;99.90;;;;;;4920771;29;20451;-82
2023/09/20 13:52:56;;;;;;;5.30;1.88;;;21.80;99.90;;;;;;4905878;29;20139;-83
2023/09/20 13:55:23;;;;;;;5.07;1.73;;;21.80;99.90;;;;;;4905646;29;20083;-83
2023/09/20 13:57:50;;;;;;;4.65;2.10;;;21.70;99.90;;;;;;4904920;29;20075;-85
2023/09/20 14:00:17;;;;;;;6.70;1.90;;;21.80;99.90;;;;;;4920538;29;20876;-83
2023/09/20 14:02:45;;;;;;;6.78;2.03;;;21.80;99.90;;;;;;4921789;29;20069;-85
2023/09/20 14:05:16;;;;;;;3.95;1.77;;;21.80;99.90;;;;;;4920140;29;20040;-85
2023/09/20 14:07:47;;;;;;;4.85;1.77;;;21.90;99.90;;;;;;4905038;29;20040;-83
2023/09/20 14:10:16;;;;;;;6.97;1.92;;;21.80;99.90;;;;;;4905586;29;20044;-84
2023/09/20 14:12:43;;;;;;;6.45;1.60;;;21.80;99.90;;;;;;4919987;29;20850;-84
2023/09/20 14:15:12;;;;;;;5.93;1.90;;;21.90;99.90;;;;;;4905354;29;20111;-85
2023/09/20 14:17:43;;;;;;;7.20;2.00;;;21.80;99.90;;;;;;4920952;29;20524;-85
2023/09/20 14:20:11;;;;;;;3.42;1.52;;;21.80;99.90;;;;;;4904774;29;20044;-85
2023/09/20 14:22:41;;;;;;;4.05;1.77;;;21.90;99.90;;;;;;4920534;29;20048;-86
2023/09/20 14:25:11;;;;;;;3.72;1.67;;;21.70;99.90;;;;;;4906126;29;20517;-87
2023/09/20 14:27:39;;;;;;;3.92;1.50;;;21.70;99.90;;;;;;4906267;29;20036;-89
2023/09/20 14:30:15;;;;;;;5.35;1.67;;;21.70;99.90;;;;;;4919840;29;20497;-85
2023/09/20 14:32:48;;;;;;;9.23;1.75;;;21.70;99.90;;;;;;4920361;29;20052;-84
2023/09/20 14:35:15;;;;;;;6.65;1.60;;;21.60;99.90;;;;;;4919320;29;20044;-84
2023/09/20 14:37:54;;;;;;;4.43;1.90;;;21.60;99.90;;;;;;4901634;29;20053;-86
2023/09/20 14:40:21;;;;;;;7.68;1.90;;;21.50;99.90;;;;;;4920028;29;20056;-84
2023/09/20 14:42:56;;;;;;;4.47;1.60;;;21.40;99.90;;;;;;4920187;29;20043;-84
2023/09/20 14:45:32;;;;;;;3.72;1.60;;;21.40;99.90;;;;;;4935197;29;20048;-85
2023/09/20 14:48:01;;;;;;;5.07;1.60;;;21.40;99.90;;;;;;4935562;29;20047;-84
2023/09/20 14:50:28;;;;;;;5.45;1.85;;;21.30;99.90;;;;;;4919316;29;20080;-84
2023/09/20 14:52:58;;;;;;;4.15;1.70;;;21.30;99.90;;;;;;4904068;29;20072;-84
2023/09/20 14:55:27;;;;;;;3.85;1.92;;;21.30;99.90;;;;;;4919398;29;20078;-84
2023/09/20 14:57:55;;;;;;;3.65;1.60;;;21.20;99.90;;;;;;4919672;29;20412;-85
2023/09/20 15:00:24;;;;;;;4.15;1.73;;;21.20;99.90;;;;;;4918833;29;20076;-85
2023/09/20 15:02:52;;;;;;;4.28;1.60;;;21.20;99.90;;;;;;4904790;29;20040;-85
2023/09/20 15:05:19;;;;;;;6.10;1.70;;;21.20;99.90;;;;;;4921932;29;20036;-83
2023/09/20 15:07:54;;;;;;;2.90;1.20;;;21.10;99.90;;;;;;4905446;29;20065;-84
2023/09/20 15:10:22;;;;;;;5.25;1.50;;;21.20;99.90;;;;;;4919385;29;20044;-84
2023/09/20 15:12:57;;;;;;;4.43;1.60;;;21.20;99.90;;;;;;4903509;29;20044;-85
2023/09/20 15:15:24;;;;;;;;;;;21.20;99.90;;;;;;4919049;29;20618;-85
2023/09/20 15:17:51;;;;;;;4.35;1.48;;;21.30;99.90;;;;;;4919317;29;19919;-85
2023/09/20 15:20:18;;;;;;;3.72;1.58;;;21.30;99.90;;;;;;4918831;29;20048;-86
2023/09/20 15:22:51;;;;;;;4.78;1.50;;;21.50;99.90;;;;;;4916947;29;20085;-86
2023/09/20 15:25:18;;;;;;;2.60;1.20;;;21.40;99.90;;;;;;4915907;29;20037;-86
2023/09/20 15:27:45;;;;;;;4.07;1.88;;;21.40;99.90;;;;;;4902351;29;20045;-87
2023/09/20 15:30:14;;;;;;;3.42;1.30;;;21.40;99.90;;;;;;4904463;29;20054;-86
2023/09/20 15:32:41;;;;;;;4.13;1.50;;;21.40;99.90;;;;;;4919885;29;20048;-86
2023/09/20 15:35:10;;;;;;;3.45;1.42;;;21.40;99.90;;;;;;4919155;29;20058;-87
2023/09/20 15:37:45;;;;;;;4.25;1.70;;;21.30;99.90;;;;;;4934958;29;20051;-86
2023/09/20 15:40:16;;;;;;;4.78;1.50;;;21.30;99.90;;;;;;4918994;29;20055;-87
2023/09/20 15:42:44;;;;;;;3.95;1.40;;;21.30;99.90;;;;;;4934116;29;20044;-86
2023/09/20 15:45:16;;;;;;;3.83;1.40;;;21.30;99.90;;;;;;4908826;29;20501;-87
2023/09/20 15:47:43;;;;;;;5.20;1.73;;;21.30;99.90;;;;;;4904531;29;20115;-86
2023/09/20 15:50:10;;;;;;;4.93;1.67;;;21.20;99.90;;;;;;4913192;29;20130;-86
2023/09/20 15:52:39;;;;;;;4.15;1.40;;;21.20;99.90;;;;;;4953357;29;20087;-87
2023/09/20 15:55:08;;;;;;;3.50;1.50;;;21.10;99.90;;;;;;4904074;29;20051;-86
2023/09/20 15:57:35;;;;;;;5.53;1.63;;;21.10;99.90;;;;;;4918783;29;20123;-85
2023/09/20 16:00:03;;;;;;;4.55;1.50;;;21.10;99.90;;;;;;4903495;29;20052;-87
2023/09/20 16:02:30;;;;;;;2.97;1.35;;;21.00;99.90;;;;;;4918355;29;20562;-86
2023/09/20 16:04:57;;;;;;;2.47;1.33;;;20.90;99.90;;;;;;4934412;29;20036;-86
2023/09/20 16:07:23;;;;;;;3.33;1.40;;;20.90;99.90;;;;;;4902937;29;20117;-85
2023/09/20 16:09:50;;;;;;;5.38;1.70;;;20.80;99.90;;;;;;4903656;29;20048;-86
2023/09/20 16:12:17;;;;;;;5.18;1.50;;;20.80;99.90;;;;;;4918008;29;20502;-88
2023/09/20 16:14:47;;;;;;;3.95;1.40;;;20.80;99.90;;;;;;4902925;29;20127;-86
2023/09/20 16:17:15;;;;;;;6.97;1.42;;;20.70;99.90;;;;;;4918693;29;20683;-86
2023/09/20 16:19:42;;;;;;;5.75;1.50;;;20.70;99.90;;;;;;4917939;29;20041;-85
2023/09/20 16:22:13;;;;;;;4.28;1.40;;;20.60;99.90;;;;;;4933668;29;20036;-86
2023/09/20 16:24:46;;;;;;;4.95;1.30;;;20.60;99.90;;;;;;4918214;29;20830;-86
2023/09/20 16:27:13;;;;;;;5.68;1.35;;;20.50;99.90;;;;;;4929920;29;20560;-83
2023/09/20 16:29:41;;;;;;;3.33;1.42;;;20.50;99.90;;;;;;4926483;29;20079;-83
2023/09/20 16:32:08;;;;;;;4.22;1.45;;;20.40;99.90;;;;;;4917086;29;20083;-83
2023/09/20 16:34:35;;;;;;;4.32;1.20;;;20.40;99.90;;;;;;4901757;29;20048;-83
2023/09/20 16:37:01;;;;;;;4.60;1.38;;;20.40;99.90;;;;;;4907128;29;20503;-83
2023/09/20 16:39:28;;;;;;;4.85;1.40;;;20.30;99.90;;;;;;4886176;29;20040;-83
2023/09/20 16:41:57;;;;;;;4.57;1.30;;;20.30;99.90;;;;;;4916920;29;20047;-82
2023/09/20 16:44:24;;;;;;;3.78;1.55;;;20.20;99.90;;;;;;4901910;29;20096;-83
2023/09/20 16:46:51;;;;;;;4.63;1.55;;;20.20;99.90;;;;;;4917476;29;20556;-82
2023/09/20 16:49:18;;;;;;;3.38;1.17;;;20.20;99.90;;;;;;4901639;29;20189;-83
2023/09/20 16:51:44;;;;;;;4.30;1.60;;;20.10;99.90;;;;;;4917435;29;20541;-83
2023/09/20 16:54:13;;;;;;;3.15;1.27;;;20.10;99.90;;;;;;4901929;29;20139;-82
2023/09/20 16:56:39;;;;;;;4.22;1.90;;;20.10;99.90;;;;;;4902044;29;20105;-84
2023/09/20 16:59:07;;;;;;;4.50;1.35;;;20.00;99.90;;;;;;4917302;29;20092;-83
2023/09/20 17:01:35;;;;;;;4.43;1.75;;;20.00;99.90;;;;;;4901592;29;20048;-83
2023/09/20 17:04:04;;;;;;;4.05;1.30;;;19.90;99.90;;;;;;4917204;29;20040;-84
2023/09/20 17:06:31;;;;;;;2.97;1.40;;;19.90;99.90;;;;;;4917137;29;20046;-84
2023/09/20 17:08:58;;;;;;;3.15;1.42;;;19.90;99.90;;;;;;4917428;29;20044;-86
2023/09/20 17:11:26;;;;;;;5.00;1.60;;;19.90;99.90;;;;;;4917426;29;20055;-87
2023/09/20 17:13:54;;;;;;;4.82;1.45;;;19.80;99.90;;;;;;4917713;29;20044;-86
2023/09/20 17:16:22;;;;;;;4.45;1.60;;;19.80;99.90;;;;;;4902220;29;20044;-85
2023/09/20 17:18:49;;;;;;;4.43;1.60;;;19.80;99.90;;;;;;4902289;29;20044;-87
2023/09/20 17:21:15;;;;;;;4.55;1.30;;;19.70;99.90;;;;;;4917906;29;20044;-88
2023/09/20 17:23:42;;;;;;;5.35;1.60;;;19.60;99.90;;;;;;4903458;29;20604;-88
2023/09/20 17:26:09;;;;;;;3.10;1.40;;;19.60;99.90;;;;;;4903184;29;20096;-88
2023/09/20 17:28:36;;;;;;;5.25;1.60;;;19.60;99.90;;;;;;4902541;29;20075;-88
2023/09/20 17:31:04;;;;;;;3.38;1.60;;;19.50;99.90;;;;;;4918815;29;20051;-88
2023/09/20 17:33:31;;;;;;;5.93;1.58;;;19.50;99.90;;;;;;4900789;29;20051;-89
2023/09/20 17:35:59;;;;;;;3.35;1.35;;;19.40;99.90;;;;;;4901691;29;20048;-88
2023/09/20 17:38:28;;;;;;;3.35;1.63;;;19.40;99.90;;;;;;4897731;29;20055;-88
2023/09/20 17:40:54;;;;;;;4.32;1.30;;;19.40;99.90;;;;;;4903224;29;20091;-89
2023/09/20 17:43:22;;;;;;;6.00;1.48;;;19.30;99.90;;;;;;4903040;29;20131;-88